Irineopolis, Brazil
Current Conditions -  °F | °C
As of 2:00 AM on Friday 31 Oct 2014 (Local Time) from SBCT Reporting Station
Haze Haze  
Wind Chill: 66°   Ceiling: 200
Heat Index: 66°   Visibility: 1.8mi
Dew Point: 64°   Wind: 9mph
Humidity: 94%   Direction: 80°E
Pressure: 29.97"   Gusts: NA
Location:  26.24°S, 50.8°W
Report Text: SBCT 310400Z 08008KT 3000 BR SCT001 OVC002 19/18 Q1015
Loading
Personal Weather Stations






























Interactive Weather Map
Tropical Storm Tracking
New forecast layout! Learn more

10-Day Weather Forecast

Advertisements
Track Severe Weather on mobile